Tropical Cyclones
[Index]
Main Index Home Page Stock Weather Photos Extreme Storms Discussion Storm News and Storm Chasing Reports Tropical Cyclones / Hurricanes / Typhoons Weather Data and Links Wild Fires / Bushfires Weather Observation Techniques Weather Picture Catalogue Tornado Pictures and Reports Stock Video Footage and DVDs for sale
Season 2001-2002 Tropical Cyclone IKALA Track Map
Season 2001-2002 Summaries (Operational Data): [AU] [SIO] [SPAC] [SH]
<<- Previous TC | 2001-2002 Season | Next TC ->>

click for intensity scale information  Lat/long Grid: Show Hide

 Date Labels: Show Hide

Operational Tropical Cyclone Data : JTWC Advisories

Name: IKALA
Number: 0220

22 Mar 2002 12:00 UTC to 31 Mar 2002 12:00 UTC

    date/time    lat    long     hPa   cat  kts
2002-03-22 12    8.5    82.6    1004         25          
2002-03-22 18    8.5    80.1    1003         25          
2002-03-23 06    8.4    78.7    1002         25          
2002-03-23 12    9.0    78.0    1002         25          
2002-03-23 18    9.1    77.2    1002         25          
2002-03-24 00    9.5    76.6    1002         25          
2002-03-24 06   10.6    76.0     999         30          
2002-03-24 12   10.9    74.7     999         30          
2002-03-24 18   11.7    73.5     997         30          
2002-03-25 00   11.5    72.8     997         30          
2002-03-25 06   11.5    72.5     995    1    35          
2002-03-25 12   11.4    72.4     992    1    40          
2002-03-25 18   11.6    73.0     990    1    45          
2002-03-26 00   12.8    73.4     985    2    50          
2002-03-26 06   13.4    73.7     978    2    55          
2002-03-26 12   14.1    74.2     976    2    55          
2002-03-26 18   15.0    74.5     968    3    65          
2002-03-27 00   15.6    74.7     950    3    85          
2002-03-27 06   16.1    75.4     945    3    85          
2002-03-27 12   17.1    76.1     940    4    90          
2002-03-27 18   18.0    76.7     945    3    85          
2002-03-28 00   18.2    77.3     955    3    80          
2002-03-28 06   18.7    78.5     965    3    65          
2002-03-28 12   19.1    79.6     985    2    50          
2002-03-28 18   20.1    80.5     985    2    50          
2002-03-29 00   20.3    81.3     990    1    45          
2002-03-29 06   20.7    82.0     995    1    45          
2002-03-29 12   21.4    81.9     995    1    45          
2002-03-29 18   21.5    81.0     995    1    45          
2002-03-30 00   22.2    80.0     995    1    45          
2002-03-30 06   23.7    79.7     995    1    45          
2002-03-30 12   24.4    78.5     998    1    40          
2002-03-30 18   25.3    77.1     999    1    35          
2002-03-31 00   27.4    76.0     999    1    35          
2002-03-31 06   28.8    76.0     999    1    40          
2002-03-31 12   29.5    75.7     999    1    40          
Winds are 10-min average.

Tropical cyclone tracks developed by Michael Bath using operational warnings and advisories and Google Maps.


[Australian Severe Weather index] [Copyright Notice] [Email Contacts] [Search This Site] [Privacy Policy]
Document: tropical_cyclone_ikala.htm Updated: 28 May 2013